Time;durP1;ratioP1;P1;durP2;ratioP2;P2;SDS_P1;SDS_P2;PMS_P1;PMS_P2;Temp;Humidity;BMP_temperature;BMP_pressure;BME280_temperature;BME280_humidity;BME280_pressure;Samples;Min_cycle;Max_cycle;Signal;HPM_P1;HPM_P2
2023/06/24 00:01:15;;;;;;;19.98;11.68;;;;;;;21.03;67.81;102330.00;4987400;28;20022;-83
2023/06/24 00:03:40;;;;;;;14.85;11.32;;;;;;;21.05;67.43;102332.59;4975849;28;20023;-82
2023/06/24 00:06:06;;;;;;;12.38;10.65;;;;;;;21.15;67.73;102321.16;4984517;28;20033;-82
2023/06/24 00:08:34;;;;;;;19.10;12.15;;;;;;;21.24;67.46;102329.66;4984435;28;20078;-82
2023/06/24 00:11:02;;;;;;;15.20;11.63;;;;;;;21.34;66.80;102331.69;4979596;28;20470;-82
2023/06/24 00:13:28;;;;;;;12.82;9.68;;;;;;;21.31;66.68;102320.25;4984287;28;20027;-82
2023/06/24 00:15:54;;;;;;;13.00;10.52;;;;;;;21.20;67.34;102326.28;4986035;28;20053;-82
2023/06/24 00:18:19;;;;;;;14.27;10.35;;;;;;;21.26;67.00;102328.56;4985129;28;20038;-82
2023/06/24 00:20:44;;;;;;;11.98;9.98;;;;;;;21.35;66.01;102328.03;4986173;28;20026;-82
2023/06/24 00:23:14;;;;;;;13.98;10.13;;;;;;;21.41;65.92;102336.72;4985228;28;20022;-82
2023/06/24 00:25:39;;;;;;;11.82;10.63;;;;;;;21.24;67.25;102335.03;4986939;28;20030;-82
2023/06/24 00:28:05;;;;;;;13.30;10.43;;;;;;;21.06;66.81;102337.00;4967820;28;20027;-82
2023/06/24 00:30:30;;;;;;;14.23;11.80;;;;;;;20.99;67.91;102335.66;4978876;28;20022;-82
2023/06/24 00:32:55;;;;;;;14.68;10.95;;;;;;;20.98;67.99;102333.91;4985440;28;20030;-82
2023/06/24 00:35:21;;;;;;;13.60;9.98;;;;;;;21.01;67.60;102341.78;4983665;28;20530;-82
2023/06/24 00:37:47;;;;;;;15.70;10.75;;;;;;;21.01;67.66;102348.03;4982921;28;20030;-82
2023/06/24 00:40:14;;;;;;;12.18;10.85;;;;;;;20.91;67.61;102349.56;4984532;28;20026;-82
2023/06/24 00:42:41;;;;;;;14.70;10.80;;;;;;;20.92;68.22;102342.34;4982841;28;20050;-82
2023/06/24 00:45:08;;;;;;;12.57;10.93;;;;;;;20.95;67.89;102344.88;4983369;28;20039;-82
2023/06/24 00:47:34;;;;;;;12.65;11.25;;;;;;;20.97;67.58;102351.88;4981095;28;20093;-82
2023/06/24 00:50:00;;;;;;;16.45;11.38;;;;;;;21.02;67.83;102351.59;4985538;28;20022;-82
2023/06/24 00:52:25;;;;;;;15.73;10.93;;;;;;;21.01;67.17;102347.19;4985274;28;20080;-82
2023/06/24 00:54:50;;;;;;;13.18;10.23;;;;;;;21.01;67.23;102342.66;4982638;28;20117;-82
2023/06/24 00:57:24;;;;;;;11.48;10.30;;;;;;;21.01;67.29;102355.25;4981816;28;20046;-82
2023/06/24 00:59:53;;;;;;;11.73;10.15;;;;;;;21.01;67.46;102348.03;4986317;28;20474;-82
2023/06/24 01:02:19;;;;;;;12.80;10.43;;;;;;;20.94;68.12;102346.69;4984949;28;20101;-82
2023/06/24 01:04:46;;;;;;;14.25;10.90;;;;;;;20.88;67.70;102347.91;4986903;28;20647;-82
2023/06/24 01:07:12;;;;;;;10.68;9.57;;;;;;;20.88;67.74;102347.91;4978501;28;20046;-82
2023/06/24 01:09:37;;;;;;;13.23;10.63;;;;;;;20.84;67.05;102342.78;4979333;28;20033;-82
2023/06/24 01:12:03;;;;;;;12.95;9.90;;;;;;;20.81;67.00;102337.63;4982918;28;20096;-82
2023/06/24 01:14:28;;;;;;;12.25;9.80;;;;;;;20.83;67.70;102328.50;4982000;28;20379;-82
2023/06/24 01:16:59;;;;;;;12.05;10.75;;;;;;;20.79;66.90;102331.44;4980884;28;20027;-82
2023/06/24 01:19:54;;;;;;;12.70;11.40;;;;;;;20.91;66.20;102330.72;4984855;28;20039;-82
2023/06/24 01:22:41;;;;;;;13.98;10.52;;;;;;;20.69;67.76;102325.75;4968955;28;20042;-82
2023/06/24 01:25:12;;;;;;;16.25;11.52;;;;;;;20.46;69.20;102323.53;4968236;28;20037;-82
2023/06/24 01:28:19;;;;;;;12.20;11.00;;;;;;;20.30;68.66;102318.19;4988591;28;20596;-82
2023/06/24 01:31:23;;;;;;;11.77;10.57;;;;;;;19.83;70.04;102322.59;4984399;28;20026;-82
2023/06/24 01:34:00;;;;;;;12.07;10.32;;;;;;;19.75;70.49;102315.94;4982837;28;20034;-82
2023/06/24 01:36:29;;;;;;;10.90;9.38;;;;;;;19.78;71.06;102322.00;4984625;28;20112;-82
2023/06/24 01:39:03;;;;;;;13.75;9.93;;;;;;;19.82;70.50;102323.56;4981836;28;20524;-82
2023/06/24 01:41:35;;;;;;;12.55;10.55;;;;;;;19.59;71.91;102306.00;4986465;28;20343;-82
2023/06/24 01:44:01;;;;;;;11.50;10.25;;;;;;;19.62;71.76;102308.53;4986423;28;20471;-82
2023/06/24 01:46:29;;;;;;;11.75;10.52;;;;;;;19.59;71.86;102313.19;4986764;28;20027;-82
2023/06/24 01:48:59;;;;;;;12.13;10.82;;;;;;;19.40;72.44;102316.00;4986523;28;20026;-82
2023/06/24 01:51:27;;;;;;;11.48;10.10;;;;;;;19.27;73.13;102331.03;4971925;28;20026;-82
2023/06/24 01:53:57;;;;;;;12.45;10.82;;;;;;;19.15;73.00;102318.25;4988765;28;20033;-82
2023/06/24 01:56:26;;;;;;;12.40;10.60;;;;;;;19.01;73.37;102324.31;4982916;28;20089;-82
2023/06/24 01:58:53;;;;;;;11.75;10.48;;;;;;;19.18;72.22;102305.56;4986035;28;20682;-82
2023/06/24 02:01:20;;;;;;;12.15;10.73;;;;;;;19.33;71.74;102310.09;4984732;28;20880;-82
2023/06/24 02:03:48;;;;;;;11.65;10.45;;;;;;;19.41;71.68;102308.81;4985564;28;20131;-82
2023/06/24 02:06:15;;;;;;;13.77;10.70;;;;;;;19.50;70.85;102316.38;4984889;28;20040;-82
2023/06/24 02:08:42;;;;;;;13.27;10.57;;;;;;;19.29;71.53;102313.00;4986336;28;20527;-82
2023/06/24 02:11:09;;;;;;;11.68;10.27;;;;;;;18.85;72.68;102306.38;4988131;28;20030;-82
2023/06/24 02:13:35;;;;;;;13.05;10.60;;;;;;;18.63;73.68;102316.41;4987130;28;20026;-82
2023/06/24 02:16:03;;;;;;;12.75;10.63;;;;;;;18.63;73.90;102307.50;4985503;28;20037;-82
2023/06/24 02:18:29;;;;;;;11.60;9.38;;;;;;;18.83;72.38;102310.94;4988040;28;20030;-82
2023/06/24 02:20:56;;;;;;;12.55;10.63;;;;;;;18.94;72.33;102312.22;4987072;28;20041;-82
2023/06/24 02:23:23;;;;;;;15.40;10.70;;;;;;;18.92;71.52;102320.31;4989528;28;20379;-82
2023/06/24 02:25:50;;;;;;;13.65;10.80;;;;;;;18.79;71.64;102312.06;4986079;28;20038;-82
2023/06/24 02:28:17;;;;;;;13.57;10.93;;;;;;;18.74;71.31;102314.06;4985094;28;20410;-82
2023/06/24 02:30:43;;;;;;;15.25;11.40;;;;;;;18.78;71.78;102318.34;4982892;28;20346;-82
2023/06/24 02:33:11;;;;;;;15.25;11.23;;;;;;;18.81;72.08;102315.50;4986983;28;20022;-82
2023/06/24 02:35:37;;;;;;;13.52;10.73;;;;;;;18.90;71.43;102305.28;4988772;28;20038;-82
2023/06/24 02:38:03;;;;;;;12.65;11.35;;;;;;;18.99;71.46;102304.78;4986445;28;20023;-82
2023/06/24 02:40:29;;;;;;;13.30;10.90;;;;;;;18.88;71.59;102307.16;4983968;28;20026;-82
2023/06/24 02:42:54;;;;;;;12.90;9.95;;;;;;;18.66;72.53;102313.59;4982770;28;20053;-82
2023/06/24 02:45:20;;;;;;;12.43;9.70;;;;;;;18.47;73.57;102310.09;4988631;28;20041;-82
2023/06/24 02:47:47;;;;;;;10.35;8.80;;;;;;;18.49;73.76;102322.47;4985638;28;20034;-82
2023/06/24 02:50:14;;;;;;;13.98;9.48;;;;;;;18.47;73.98;102315.47;4983504;28;20029;-82
2023/06/24 02:52:40;;;;;;;12.73;10.00;;;;;;;18.55;73.15;102310.56;4987793;28;20049;-82
2023/06/24 02:55:06;;;;;;;11.50;9.00;;;;;;;18.61;73.25;102312.97;4989451;28;20041;-82
2023/06/24 02:57:33;;;;;;;10.52;8.95;;;;;;;18.51;73.22;102312.56;4984684;28;20037;-82
2023/06/24 02:59:58;;;;;;;12.30;11.00;;;;;;;18.44;73.22;102315.59;4983732;28;20026;-82
2023/06/24 03:02:24;;;;;;;13.15;11.75;;;;;;;18.30;73.41;102324.31;4986209;28;20100;-82
2023/06/24 03:04:51;;;;;;;13.15;10.27;;;;;;;18.21;73.78;102317.59;4972449;28;20065;-82
2023/06/24 03:07:20;;;;;;;13.95;11.73;;;;;;;18.13;74.38;102326.94;4985832;28;20065;-82
2023/06/24 03:09:46;;;;;;;13.10;9.77;;;;;;;18.15;74.25;102338.44;4986615;28;20037;-82
2023/06/24 03:12:11;;;;;;;15.52;9.70;;;;;;;18.22;73.89;102332.72;4986150;28;20030;-82
2023/06/24 03:14:36;;;;;;;11.02;9.10;;;;;;;18.13;74.20;102330.47;4984737;28;20080;-82
2023/06/24 03:17:02;;;;;;;9.63;7.18;;;;;;;18.20;73.90;102331.06;4964517;28;20445;-82
2023/06/24 03:19:27;;;;;;;8.18;6.60;;;;;;;18.21;73.69;102324.75;4994059;28;20088;-82
2023/06/24 03:21:52;;;;;;;8.63;7.28;;;;;;;18.24;73.78;102328.16;4987123;28;20030;-82
2023/06/24 03:24:18;;;;;;;9.82;6.28;;;;;;;18.30;73.42;102322.50;4985398;28;20602;-82
2023/06/24 03:26:43;;;;;;;9.07;7.50;;;;;;;18.40;73.01;102319.38;4982616;28;20026;-82
2023/06/24 03:29:08;;;;;;;8.25;6.53;;;;;;;18.39;73.04;102323.00;4985768;28;20049;-82
2023/06/24 03:31:34;;;;;;;9.15;7.28;;;;;;;18.40;73.54;102314.00;4989730;28;20022;-82
2023/06/24 03:33:59;;;;;;;11.02;8.68;;;;;;;18.29;73.62;102319.91;4986755;28;20237;-82
2023/06/24 03:36:24;;;;;;;12.07;9.18;;;;;;;18.27;73.77;102319.09;4987749;28;20054;-82
2023/06/24 03:38:50;;;;;;;10.80;9.38;;;;;;;18.13;73.89;102317.09;4987001;28;20080;-82
2023/06/24 03:41:16;;;;;;;10.57;8.57;;;;;;;18.06;74.42;102313.00;4981712;28;20504;-82
2023/06/24 03:43:41;;;;;;;15.38;10.38;;;;;;;18.13;73.66;102329.59;4983804;28;20062;-82
2023/06/24 03:46:07;;;;;;;16.70;11.30;;;;;;;18.15;73.93;102325.06;4985251;28;20548;-82
2023/06/24 03:48:32;;;;;;;14.15;10.48;;;;;;;18.23;73.74;102329.13;4983821;28;20022;-82
2023/06/24 03:50:57;;;;;;;12.07;9.90;;;;;;;18.34;73.26;102328.56;4978875;28;20121;-82
2023/06/24 03:53:23;;;;;;;11.73;10.30;;;;;;;18.23;72.99;102329.13;4966751;28;20490;-82
2023/06/24 03:55:48;;;;;;;14.85;10.63;;;;;;;18.39;72.56;102333.72;4986203;28;20022;-82
2023/06/24 03:58:13;;;;;;;14.35;10.30;;;;;;;18.31;72.62;102334.94;4987852;28;20027;-82
2023/06/24 04:00:40;;;;;;;14.10;10.88;;;;;;;18.34;72.60;102337.47;4984704;28;20085;-82
2023/06/24 04:03:07;;;;;;;14.25;11.45;;;;;;;18.26;72.82;102336.09;4987220;28;20018;-82
2023/06/24 04:05:35;;;;;;;11.73;10.45;;;;;;;18.21;72.99;102341.69;4988107;28;20637;-82
2023/06/24 04:08:03;;;;;;;14.88;10.38;;;;;;;17.97;74.11;102340.19;4984846;28;20065;-82
2023/06/24 04:10:28;;;;;;;12.45;10.68;;;;;;;18.02;73.65;102336.34;4987677;28;20022;-82
2023/06/24 04:12:54;;;;;;;12.90;9.70;;;;;;;18.16;73.49;102341.03;4987605;28;20052;-82
2023/06/24 04:15:19;;;;;;;11.38;9.60;;;;;;;18.27;73.18;102343.19;4984389;28;20601;-82
2023/06/24 04:17:44;;;;;;;13.82;9.75;;;;;;;18.29;72.91;102336.84;4986328;28;20034;-82
2023/06/24 04:20:10;;;;;;;11.02;9.70;;;;;;;18.34;72.94;102340.16;4987821;28;20018;-82
2023/06/24 04:22:40;;;;;;;10.82;9.20;;;;;;;18.10;73.85;102331.50;4982926;28;20038;-82
2023/06/24 04:25:06;;;;;;;11.18;9.77;;;;;;;18.10;74.05;102342.22;4985601;28;21113;-82
2023/06/24 04:27:33;;;;;;;12.35;9.85;;;;;;;17.99;74.68;102349.00;4983945;28;20506;-82
2023/06/24 04:29:59;;;;;;;11.43;9.48;;;;;;;17.98;74.89;102342.78;4982749;28;20030;-82
2023/06/24 04:32:24;;;;;;;11.00;9.77;;;;;;;17.93;75.11;102335.91;4984147;28;20034;-82
2023/06/24 04:34:49;;;;;;;13.02;9.05;;;;;;;17.97;75.30;102340.19;4976899;28;20029;-82
2023/06/24 04:37:15;;;;;;;12.30;9.07;;;;;;;17.91;75.23;102336.00;4984980;28;20031;-82
2023/06/24 04:39:41;;;;;;;13.88;9.13;;;;;;;17.89;75.70;102337.88;4982831;28;20030;-82
2023/06/24 04:42:06;;;;;;;11.98;9.02;;;;;;;18.00;75.05;102342.69;4986364;28;20092;-82
2023/06/24 04:44:31;;;;;;;11.80;10.60;;;;;;;17.97;75.01;102341.06;4982531;28;20481;-82
2023/06/24 04:46:56;;;;;;;13.68;10.23;;;;;;;17.98;75.39;102348.13;4984272;28;20053;-82
2023/06/24 04:49:22;;;;;;;12.05;10.02;;;;;;;18.12;74.69;102347.47;4984897;28;20030;-82
2023/06/24 04:51:47;;;;;;;11.48;9.52;;;;;;;18.25;74.57;102342.41;4984757;28;20526;-82
2023/06/24 04:54:12;;;;;;;13.23;9.35;;;;;;;18.51;73.77;102342.00;4983931;28;20476;-82
2023/06/24 04:56:39;;;;;;;11.52;9.70;;;;;;;18.61;73.18;102345.97;4985105;28;20500;-82
2023/06/24 04:59:04;;;;;;;13.45;9.93;;;;;;;18.71;72.04;102338.38;4977395;28;20125;-82
2023/06/24 05:01:30;;;;;;;16.08;10.38;;;;;;;18.83;71.54;102340.41;4981653;28;20117;-82
2023/06/24 05:03:55;;;;;;;14.75;9.52;;;;;;;18.97;71.02;102344.19;4988497;28;20030;-82
2023/06/24 05:06:20;;;;;;;14.05;9.70;;;;;;;19.04;70.38;102348.31;4987754;28;20022;-82
2023/06/24 05:08:46;;;;;;;17.00;10.93;;;;;;;19.11;68.39;102347.03;4978271;28;20038;-82
2023/06/24 05:11:11;;;;;;;16.75;10.65;;;;;;;19.10;67.81;102339.94;4983887;28;20022;-82
2023/06/24 05:13:37;;;;;;;15.60;11.48;;;;;;;19.15;67.79;102343.25;4969161;28;20424;-82
2023/06/24 05:16:02;;;;;;;17.52;12.55;;;;;;;19.13;68.17;102345.16;4983129;28;20030;-82
2023/06/24 05:18:28;;;;;;;14.63;11.68;;;;;;;19.19;69.19;102341.28;4984230;28;20065;-82
2023/06/24 05:20:53;;;;;;;19.27;13.45;;;;;;;19.13;68.87;102334.44;4979544;28;20064;-82
2023/06/24 05:23:18;;;;;;;16.95;12.95;;;;;;;19.17;68.32;102338.69;4983988;28;20030;-82
2023/06/24 05:25:43;;;;;;;18.77;13.30;;;;;;;19.24;70.22;102339.22;4989839;28;20022;-82
2023/06/24 05:28:09;;;;;;;22.70;15.30;;;;;;;19.24;68.51;102342.75;4989942;28;20038;-82
2023/06/24 05:30:34;;;;;;;20.08;13.40;;;;;;;19.20;68.16;102343.00;4979831;28;20030;-82
2023/06/24 05:32:59;;;;;;;24.90;14.98;;;;;;;19.14;68.42;102336.16;4983442;28;20030;-82
2023/06/24 05:35:24;;;;;;;22.25;15.52;;;;;;;19.11;69.20;102345.22;4986616;28;20106;-82
2023/06/24 05:37:50;;;;;;;21.08;15.30;;;;;;;19.19;68.75;102349.31;4985635;28;20029;-82
2023/06/24 05:40:15;;;;;;;21.40;14.75;;;;;;;19.36;68.63;102349.31;4990288;28;20030;-82
2023/06/24 05:42:40;;;;;;;20.65;15.10;;;;;;;19.42;67.56;102342.75;4983998;28;20031;-82
2023/06/24 05:45:06;;;;;;;22.88;15.70;;;;;;;19.50;67.72;102344.06;4984484;28;20057;-82
2023/06/24 05:47:32;;;;;;;21.42;15.50;;;;;;;19.53;67.15;102353.75;4982982;28;20041;-82
2023/06/24 05:49:58;;;;;;;20.27;15.02;;;;;;;19.62;66.79;102346.09;4983813;28;20034;-82
2023/06/24 05:52:24;;;;;;;17.75;13.98;;;;;;;19.65;66.02;102355.81;4986700;28;20037;-82
2023/06/24 05:54:49;;;;;;;21.27;14.40;;;;;;;19.72;66.49;102350.97;4981710;28;20401;-82
2023/06/24 05:57:14;;;;;;;21.15;14.52;;;;;;;19.72;65.30;102348.28;4987315;28;20561;-82
2023/06/24 05:59:39;;;;;;;17.38;13.30;;;;;;;19.72;63.21;102349.16;4985194;28;20077;-82
2023/06/24 06:02:05;;;;;;;16.80;11.80;;;;;;;19.80;63.97;102343.38;4985539;28;20574;-82
2023/06/24 06:04:30;;;;;;;16.45;12.45;;;;;;;19.86;63.80;102351.97;4971865;28;20034;-82
2023/06/24 06:06:56;;;;;;;14.80;11.75;;;;;;;19.91;62.73;102353.50;4986533;28;20045;-82
2023/06/24 06:09:22;;;;;;;15.45;12.63;;;;;;;20.02;61.33;102351.97;4969112;28;20034;-82
2023/06/24 06:11:47;;;;;;;15.10;11.75;;;;;;;20.06;62.41;102355.34;4969390;28;20113;-82
2023/06/24 06:14:13;;;;;;;15.18;12.85;;;;;;;20.02;60.82;102354.66;4980522;28;20049;-82
2023/06/24 06:16:38;;;;;;;16.38;12.25;;;;;;;20.09;61.71;102355.16;4980049;28;20039;-82
2023/06/24 06:19:03;;;;;;;17.45;12.38;;;;;;;20.19;60.48;102347.47;4980157;28;20037;-80
2023/06/24 06:21:29;;;;;;;18.25;12.55;;;;;;;20.29;59.65;102354.94;4986128;28;20031;-80
2023/06/24 06:23:54;;;;;;;15.45;12.07;;;;;;;20.55;60.06;102357.94;4989114;28;20257;-80
2023/06/24 06:26:19;;;;;;;15.77;12.00;;;;;;;20.62;59.27;102362.03;4979365;28;20035;-80
2023/06/24 06:28:47;;;;;;;15.35;11.32;;;;;;;20.82;58.96;102364.41;4983375;28;20425;-80
2023/06/24 06:31:12;;;;;;;20.15;13.00;;;;;;;21.00;58.53;102366.97;4982393;28;20398;-80
2023/06/24 06:33:37;;;;;;;14.48;11.05;;;;;;;21.19;56.90;102369.41;4988426;28;20037;-80
2023/06/24 06:36:03;;;;;;;14.27;10.82;;;;;;;21.34;56.68;102365.81;4983702;28;20537;-80
2023/06/24 06:38:28;;;;;;;14.50;11.55;;;;;;;21.48;57.59;102368.50;4986948;28;20041;-80
2023/06/24 06:40:53;;;;;;;14.52;11.05;;;;;;;21.58;56.82;102363.41;4982791;28;20490;-80
2023/06/24 06:43:19;;;;;;;14.95;10.23;;;;;;;21.52;55.64;102363.81;4984223;28;20030;-80
2023/06/24 06:45:44;;;;;;;14.38;10.35;;;;;;;21.72;55.52;102362.56;4984292;28;20393;-80
2023/06/24 06:48:09;;;;;;;12.77;9.32;;;;;;;21.91;55.63;102374.75;4990382;28;20065;-80
2023/06/24 06:50:35;;;;;;;12.65;9.75;;;;;;;21.99;55.13;102370.72;4988892;28;20046;-80
2023/06/24 06:53:00;;;;;;;16.15;10.20;;;;;;;21.95;56.93;102372.72;4983295;28;20030;-80
2023/06/24 06:55:26;;;;;;;11.98;8.32;;;;;;;22.00;54.66;102370.59;4972642;28;20105;-80
2023/06/24 06:57:52;;;;;;;13.85;8.98;;;;;;;22.23;56.14;102385.31;4984355;28;20026;-80
2023/06/24 07:00:18;;;;;;;11.82;9.02;;;;;;;22.21;54.13;102381.03;4967432;28;20034;-80
2023/06/24 07:02:43;;;;;;;12.48;9.80;;;;;;;22.43;54.02;102384.06;4979919;28;20535;-80
2023/06/24 07:05:09;;;;;;;12.05;9.60;;;;;;;22.39;57.50;102394.16;4987217;28;20089;-80
2023/06/24 07:07:37;;;;;;;12.45;9.15;;;;;;;22.39;53.20;102385.22;4983338;28;20525;-80
2023/06/24 07:10:02;;;;;;;13.85;9.27;;;;;;;22.52;52.73;102387.94;4983296;28;20026;-80
2023/06/24 07:12:27;;;;;;;12.70;8.70;;;;;;;22.46;53.46;102388.34;4984289;28;20037;-81
2023/06/24 07:14:53;;;;;;;12.70;9.15;;;;;;;22.66;53.93;102391.47;4970601;28;20026;-80
2023/06/24 07:17:18;;;;;;;12.02;8.90;;;;;;;22.66;54.15;102401.38;4985486;28;20030;-80
2023/06/24 07:19:43;;;;;;;13.18;9.27;;;;;;;22.58;52.67;102388.41;4981258;28;20030;-80
2023/06/24 07:22:08;;;;;;;15.57;10.38;;;;;;;22.53;54.66;102389.69;4985611;28;20034;-80
2023/06/24 07:24:34;;;;;;;13.35;9.93;;;;;;;22.55;53.76;102387.75;4987596;28;20462;-80
2023/06/24 07:26:59;;;;;;;14.85;9.85;;;;;;;22.39;52.76;102390.59;4978219;28;20030;-80
2023/06/24 07:29:24;;;;;;;13.27;9.30;;;;;;;22.55;53.64;102393.16;4978745;28;20622;-80
2023/06/24 07:31:49;;;;;;;12.93;9.68;;;;;;;22.96;52.46;102393.09;4987335;28;20049;-80
2023/06/24 07:34:15;;;;;;;13.88;8.52;;;;;;;23.95;50.65;102392.53;4988504;28;20033;-80
2023/06/24 07:36:40;;;;;;;7.43;5.82;;;;;;;24.52;45.63;102395.50;4982411;28;20533;-80
2023/06/24 07:39:05;;;;;;;8.88;4.85;;;;;;;25.34;42.96;102391.06;4985047;28;20025;-80
2023/06/24 07:41:31;;;;;;;6.90;5.23;;;;;;;25.48;39.94;102387.28;4980625;28;20070;-80
2023/06/24 07:43:57;;;;;;;7.30;5.00;;;;;;;25.58;41.50;102390.13;4978431;28;20285;-80
2023/06/24 07:46:22;;;;;;;8.93;6.00;;;;;;;25.65;40.38;102388.66;4986474;28;20026;-80
2023/06/24 07:48:47;;;;;;;8.70;6.05;;;;;;;26.17;41.96;102389.91;4980416;28;20356;-80
2023/06/24 07:51:13;;;;;;;7.70;5.82;;;;;;;26.81;40.31;102389.97;4983308;28;20018;-80
2023/06/24 07:53:38;;;;;;;8.10;5.10;;;;;;;27.38;38.63;102394.16;4985866;28;20022;-80
2023/06/24 07:56:03;;;;;;;6.78;5.68;;;;;;;27.59;38.58;102380.53;4989962;28;20375;-80
2023/06/24 07:58:28;;;;;;;7.18;5.18;;;;;;;28.16;36.39;102383.66;4966609;28;20040;-80
2023/06/24 08:00:54;;;;;;;8.23;4.70;;;;;;;28.41;35.46;102385.91;4984846;28;20055;-80
2023/06/24 08:03:19;;;;;;;6.60;4.27;;;;;;;28.68;34.78;102392.53;4986757;28;20386;-80
2023/06/24 08:05:44;;;;;;;7.90;4.32;;;;;;;28.98;34.17;102386.94;4987572;28;20291;-80
2023/06/24 08:08:10;;;;;;;4.88;3.72;;;;;;;29.57;33.83;102387.72;4980144;28;20046;-80
2023/06/24 08:10:35;;;;;;;5.30;3.95;;;;;;;29.82;33.00;102388.91;4968852;28;20030;-80
2023/06/24 08:13:00;;;;;;;5.05;3.35;;;;;;;29.46;33.74;102380.53;4983639;28;20040;-80
2023/06/24 08:15:25;;;;;;;5.18;3.45;;;;;;;29.29;31.71;102384.03;4985006;28;20084;-80
2023/06/24 08:17:52;;;;;;;4.40;3.30;;;;;;;29.62;31.76;102373.66;4991864;28;20117;-80
2023/06/24 08:20:17;;;;;;;3.30;2.63;;;;;;;29.71;30.24;102380.94;4984677;28;20685;-80
2023/06/24 08:22:42;;;;;;;5.53;3.33;;;;;;;30.46;30.23;102370.78;4984221;28;20018;-80
2023/06/24 08:25:08;;;;;;;4.05;3.03;;;;;;;30.68;29.32;102372.16;4982382;28;20084;-80
2023/06/24 08:27:33;;;;;;;4.55;3.30;;;;;;;30.79;29.07;102374.72;4984818;28;20026;-80
2023/06/24 08:29:59;;;;;;;5.03;3.08;;;;;;;30.89;29.63;102370.00;4982741;28;20085;-80
2023/06/24 08:32:24;;;;;;;3.40;3.00;;;;;;;31.24;28.63;102373.69;4986442;28;20038;-80
2023/06/24 08:34:49;;;;;;;3.57;2.93;;;;;;;30.05;29.40;102380.34;4978985;28;20294;-80
2023/06/24 08:37:14;;;;;;;3.20;2.33;;;;;;;30.32;30.90;102361.25;4982410;28;20281;-80
2023/06/24 08:39:40;;;;;;;2.87;2.47;;;;;;;30.72;29.69;102357.22;4971919;28;20292;-80
2023/06/24 08:42:05;;;;;;;3.13;2.28;;;;;;;30.96;28.03;102362.03;4992780;28;20804;-80
2023/06/24 08:44:30;;;;;;;3.40;2.60;;;;;;;31.25;29.37;102367.22;4982566;28;20453;-80
2023/06/24 08:46:56;;;;;;;2.33;2.13;;;;;;;31.63;27.90;102356.88;4985848;28;20109;-81
2023/06/24 08:49:21;;;;;;;2.60;2.00;;;;;;;31.37;29.38;102360.47;4994842;28;20070;-82
2023/06/24 08:51:55;;;;;;;2.50;2.30;;;;;;;31.38;28.25;102353.97;4987450;28;20393;-82
2023/06/24 08:54:22;;;;;;;2.17;1.98;;;;;;;31.38;28.83;102358.59;4990120;28;20033;-80
2023/06/24 08:56:48;;;;;;;4.20;1.95;;;;;;;31.15;27.29;102352.78;4988145;28;20379;-80
2023/06/24 08:59:19;;;;;;;3.70;2.03;;;;;;;31.24;26.95;102362.75;4985050;28;20038;-80
2023/06/24 09:01:44;;;;;;;3.30;2.20;;;;;;;31.37;28.34;102362.34;4969287;28;20027;-81
2023/06/24 09:04:09;;;;;;;2.70;2.20;;;;;;;31.34;26.71;102360.81;4965475;28;20117;-80
2023/06/24 09:06:35;;;;;;;2.40;2.00;;;;;;;31.02;28.59;102355.94;4984759;28;20108;-80
2023/06/24 09:09:00;;;;;;;3.08;1.98;;;;;;;30.76;30.70;102363.22;4984214;28;20308;-80
2023/06/24 09:11:27;;;;;;;1.95;1.83;;;;;;;30.67;26.76;102359.53;4982163;28;20034;-80
2023/06/24 09:13:59;;;;;;;2.38;2.17;;;;;;;30.49;29.60;102354.94;4962599;28;20108;-80
2023/06/24 09:16:25;;;;;;;2.33;1.98;;;;;;;30.29;28.95;102345.19;4984003;28;20057;-80
2023/06/24 09:18:52;;;;;;;3.72;2.13;;;;;;;29.62;31.79;102352.72;4984775;28;20070;-80
2023/06/24 09:21:30;;;;;;;5.53;2.20;;;;;;;29.66;31.95;102351.41;4983541;28;20150;-80
2023/06/24 09:23:57;;;;;;;3.58;2.55;;;;;;;30.03;31.81;102350.50;4983783;28;20029;-80
2023/06/24 09:26:23;;;;;;;2.97;2.30;;;;;;;30.02;31.23;102345.19;4984210;28;20046;-80
2023/06/24 09:28:49;;;;;;;4.68;2.30;;;;;;;30.05;32.22;102337.56;4980910;28;20225;-80
2023/06/24 09:31:14;;;;;;;4.32;2.50;;;;;;;29.50;30.69;102332.06;4983459;28;20065;-80
2023/06/24 09:33:40;;;;;;;2.50;2.30;;;;;;;29.38;32.76;102334.13;4986391;28;20077;-80
2023/06/24 09:36:06;;;;;;;3.13;2.70;;;;;;;29.31;30.83;102322.09;4990183;28;20045;-80
2023/06/24 09:38:32;;;;;;;2.75;2.28;;;;;;;29.11;29.67;102332.19;4987023;28;20022;-80
2023/06/24 09:41:05;;;;;;;3.65;2.50;;;;;;;29.39;32.02;102330.38;4988933;28;20101;-80
2023/06/24 09:43:34;;;;;;;2.58;2.20;;;;;;;29.33;29.94;102324.66;4981736;28;20441;-80
2023/06/24 09:46:02;;;;;;;4.00;2.60;;;;;;;29.51;30.79;102324.72;4980311;28;20080;-80
2023/06/24 09:48:27;;;;;;;4.10;2.65;;;;;;;29.09;29.63;102319.69;4982034;28;20388;-80
2023/06/24 09:50:59;;;;;;;3.83;2.40;;;;;;;29.20;33.70;102325.84;4983366;28;20026;-80
2023/06/24 09:53:25;;;;;;;2.90;2.58;;;;;;;29.58;30.61;102312.28;4988667;28;20048;-80
2023/06/24 09:55:50;;;;;;;2.92;2.45;;;;;;;29.63;31.24;102315.41;4987931;28;20485;-80
2023/06/24 09:58:18;;;;;;;5.13;2.90;;;;;;;29.43;31.01;102315.44;4987464;28;20030;-80
2023/06/24 10:00:43;;;;;;;3.97;2.70;;;;;;;29.26;32.40;102327.13;4984678;28;20037;-80
2023/06/24 10:03:09;;;;;;;4.53;2.67;;;;;;;29.76;31.24;102323.25;4991643;28;20386;-81
2023/06/24 10:05:35;;;;;;;4.47;2.60;;;;;;;30.41;31.38;102322.13;4983189;28;20046;-81
2023/06/24 10:08:03;;;;;;;3.25;2.58;;;;;;;30.44;30.21;102310.00;4980143;28;20042;-80
2023/06/24 10:10:28;;;;;;;3.03;2.17;;;;;;;30.92;30.57;102319.69;4984676;28;20056;-81
2023/06/24 10:12:54;;;;;;;4.00;2.30;;;;;;;30.29;27.52;102315.16;4986647;28;20034;-80
2023/06/24 10:15:19;;;;;;;3.65;2.28;;;;;;;30.34;28.34;102314.69;4987396;28;20028;-80
2023/06/24 10:17:45;;;;;;;3.95;2.28;;;;;;;30.77;29.12;102313.06;4984348;28;20062;-80
2023/06/24 10:20:10;;;;;;;3.85;2.15;;;;;;;30.74;27.89;102319.72;4986303;28;20034;-80
2023/06/24 10:22:36;;;;;;;2.97;1.92;;;;;;;30.95;26.33;102313.88;4983777;28;20065;-81
2023/06/24 10:25:06;;;;;;;2.50;2.30;;;;;;;31.22;27.52;102311.00;4985183;28;20113;-81
2023/06/24 10:27:38;;;;;;;2.50;2.30;;;;;;;31.64;27.69;102314.84;4983591;28;20064;-81
2023/06/24 10:30:04;;;;;;;5.18;2.58;;;;;;;31.82;27.49;102312.88;4982119;28;20539;-80
2023/06/24 10:32:41;;;;;;;3.75;2.78;;;;;;;31.82;27.03;102306.53;4988290;28;20034;-80
2023/06/24 10:35:06;;;;;;;3.10;2.80;;;;;;;31.71;28.28;102304.94;4990166;28;20043;-80
2023/06/24 10:37:33;;;;;;;3.55;2.83;;;;;;;31.46;27.72;102304.84;4991851;28;20026;-80
2023/06/24 10:40:00;;;;;;;3.28;2.50;;;;;;;31.43;27.13;102305.19;4988072;28;20502;-80
2023/06/24 10:42:32;;;;;;;4.13;2.53;;;;;;;31.54;29.57;102305.91;4990953;28;20022;-80
2023/06/24 10:45:13;;;;;;;3.15;2.58;;;;;;;31.66;27.56;102302.72;4983246;28;20030;-80
2023/06/24 10:47:40;;;;;;;2.80;2.50;;;;;;;32.02;26.63;102302.50;4978234;28;20088;-80
2023/06/24 10:50:06;;;;;;;3.20;2.25;;;;;;;32.35;25.68;102295.19;4978076;28;20297;-81
2023/06/24 10:52:32;;;;;;;4.00;2.63;;;;;;;32.49;26.47;102305.50;4978676;28;20041;-80
2023/06/24 10:54:58;;;;;;;3.20;2.90;;;;;;;32.27;26.37;102295.22;4988978;28;20042;-80
2023/06/24 10:57:25;;;;;;;4.15;2.78;;;;;;;32.04;26.08;102299.59;4982233;28;20030;-80
2023/06/24 10:59:54;;;;;;;4.15;3.00;;;;;;;31.60;25.63;102288.84;4982840;28;20247;-80
2023/06/24 11:02:22;;;;;;;4.07;2.80;;;;;;;31.84;26.89;102293.56;4987331;28;20486;-80
2023/06/24 11:04:56;;;;;;;3.92;2.92;;;;;;;32.45;27.33;102286.84;4963679;28;20038;-81
2023/06/24 11:07:24;;;;;;;3.28;2.97;;;;;;;32.88;26.07;102288.41;4964139;28;20414;-80
2023/06/24 11:09:54;;;;;;;4.72;2.83;;;;;;;33.26;26.86;102288.69;4987861;28;20489;-80
2023/06/24 11:12:24;;;;;;;3.25;2.95;;;;;;;33.34;25.93;102277.66;4982163;28;20124;-80
2023/06/24 11:14:49;;;;;;;5.78;3.40;;;;;;;33.54;26.29;102277.31;4983066;28;20160;-80